createdAt,value
2019-06-07T00:01:11.328Z,16.90
2019-06-07T00:06:23.627Z,16.80
2019-06-07T00:11:22.018Z,16.70
2019-06-07T00:16:26.471Z,16.70
2019-06-07T00:22:12.683Z,16.60
2019-06-07T00:26:57.083Z,16.60
2019-06-07T00:31:43.045Z,16.60
2019-06-07T00:36:47.396Z,16.60
2019-06-07T00:41:51.849Z,16.50
2019-06-07T00:46:56.367Z,16.50
2019-06-07T00:52:00.769Z,16.40
2019-06-07T00:57:05.402Z,16.40
2019-06-07T01:02:09.967Z,16.30
2019-06-07T01:07:33.648Z,16.30
2019-06-07T01:12:37.987Z,16.20
2019-06-07T01:18:32.429Z,16.20
2019-06-07T01:22:48.416Z,16.10
2019-06-07T01:27:52.767Z,16.10
2019-06-07T01:32:57.119Z,16.10
2019-06-07T01:38:01.461Z,16.00
2019-06-07T01:43:05.879Z,16.00
2019-06-07T01:48:10.237Z,15.90
2019-06-07T01:53:18.725Z,15.90
2019-06-07T01:58:22.230Z,15.90
2019-06-07T02:03:32.250Z,15.80
2019-06-07T02:08:34.193Z,15.80
2019-06-07T02:13:38.848Z,15.80
2019-06-07T02:19:00.718Z,15.80
2019-06-07T02:23:49.518Z,15.70
2019-06-07T02:28:53.879Z,15.70
2019-06-07T02:33:58.250Z,15.60
2019-06-07T02:39:24.024Z,15.50
2019-06-07T02:44:32.198Z,15.50
2019-06-07T02:49:40.538Z,15.40
2019-06-07T02:54:40.893Z,15.40
2019-06-07T03:00:06.560Z,15.30
2019-06-07T03:04:51.614Z,15.40
2019-06-07T03:09:56.722Z,15.30
2019-06-07T03:15:02.739Z,15.20
2019-06-07T03:20:10.201Z,15.20
2019-06-07T03:25:14.694Z,15.10
2019-06-07T03:30:39.133Z,15.10
2019-06-07T03:35:28.487Z,15.00
2019-06-07T03:40:36.767Z,15.00
2019-06-07T03:45:41.536Z,15.00
2019-06-07T03:50:45.482Z,15.00
2019-06-07T03:55:49.837Z,14.90
2019-06-07T04:00:54.194Z,14.90
2019-06-07T04:05:58.534Z,14.80
2019-06-07T04:11:02.925Z,14.90
2019-06-07T04:16:07.711Z,14.90
2019-06-07T04:21:12.052Z,14.80
2019-06-07T04:26:16.405Z,14.80
2019-06-07T04:31:22.175Z,14.80
2019-06-07T04:36:44.294Z,14.90
2019-06-07T04:41:55.514Z,14.90
2019-06-07T04:47:01.519Z,14.90
2019-06-07T04:52:06.474Z,15.00
2019-06-07T04:57:10.824Z,15.00
2019-06-07T05:02:15.162Z,15.00
2019-06-07T05:07:19.511Z,15.00
2019-06-07T05:12:23.866Z,15.10
2019-06-07T05:17:28.885Z,15.20
2019-06-07T05:22:38.898Z,15.20
2019-06-07T05:27:46.333Z,15.20
2019-06-07T05:32:47.087Z,15.20
2019-06-07T05:37:51.676Z,15.20
2019-06-07T05:42:56.026Z,15.30
2019-06-07T05:48:00.509Z,15.20
2019-06-07T05:53:05.515Z,15.30
2019-06-07T05:58:09.867Z,15.30
2019-06-07T06:03:14.212Z,15.40
2019-06-07T06:08:18.788Z,15.50
2019-06-07T06:13:23.203Z,15.60
2019-06-07T06:18:27.566Z,15.70
2019-06-07T06:23:31.929Z,16.00
2019-06-07T06:28:37.195Z,16.60
2019-06-07T06:33:43.402Z,17.30
2019-06-07T06:38:49.725Z,17.50
2019-06-07T06:43:54.481Z,17.50
2019-06-07T06:48:59.238Z,17.40
2019-06-07T06:54:03.806Z,17.30
2019-06-07T07:04:15.169Z,17.30
2019-06-07T07:09:19.932Z,17.20
2019-06-07T07:14:24.272Z,17.20
2019-06-07T07:19:28.611Z,17.20
2019-06-07T07:24:32.958Z,17.30
2019-06-07T07:29:37.334Z,17.30
2019-06-07T07:34:45.535Z,17.40
2019-06-07T07:39:50.621Z,17.50
2019-06-07T07:44:56.534Z,17.70
2019-06-07T07:49:59.844Z,17.80
2019-06-07T07:55:05.421Z,18.00
2019-06-07T08:00:48.757Z,18.10
2019-06-07T08:05:23.411Z,18.10
2019-06-07T08:10:22.860Z,18.10
2019-06-07T08:15:27.273Z,18.20
2019-06-07T08:20:31.629Z,18.30
2019-06-07T08:25:35.993Z,18.40
2019-06-07T08:30:52.355Z,18.50
2019-06-07T08:40:56.808Z,18.40
2019-06-07T08:46:04.409Z,18.40
2019-06-07T08:51:08.224Z,18.50
2019-06-07T08:56:30.059Z,18.70
2019-06-07T09:01:53.700Z,19.00
2019-06-07T09:07:14.731Z,19.20
2019-06-07T09:12:08.076Z,19.40
2019-06-07T09:17:12.086Z,19.70
2019-06-07T09:22:14.291Z,19.90
2019-06-07T09:27:18.650Z,20.10
2019-06-07T09:32:23.000Z,20.40
2019-06-07T09:42:33.743Z,20.80
2019-06-07T09:47:38.082Z,21.00
2019-06-07T09:52:57.984Z,21.20
2019-06-07T09:57:48.491Z,21.30
2019-06-07T10:02:52.939Z,21.40
2019-06-07T10:08:06.774Z,21.50
2019-06-07T10:13:04.143Z,21.60
2019-06-07T10:18:09.192Z,21.70
2019-06-07T10:23:13.801Z,21.90
2019-06-07T10:28:18.159Z,22.00
2019-06-07T10:33:22.493Z,22.20
2019-06-07T10:38:26.842Z,22.30
2019-06-07T10:43:31.191Z,22.50
2019-06-07T10:48:35.526Z,22.60
2019-06-07T10:53:39.881Z,22.60
2019-06-07T10:58:44.234Z,22.70
2019-06-07T11:03:48.571Z,22.80
2019-06-07T11:08:52.912Z,22.80
2019-06-07T11:13:57.275Z,22.90
2019-06-07T11:19:01.612Z,22.90
2019-06-07T11:24:06.160Z,23.00
2019-06-07T11:29:10.909Z,23.10
2019-06-07T11:34:15.496Z,23.00
2019-06-07T11:39:19.829Z,23.10
2019-06-07T11:44:24.173Z,23.10
2019-06-07T11:49:28.522Z,23.20
2019-06-07T11:54:33.280Z,23.20
2019-06-07T11:59:37.616Z,23.20
2019-06-07T12:04:41.967Z,23.20
2019-06-07T12:09:56.473Z,23.20
2019-06-07T12:14:55.035Z,23.20
2019-06-07T12:19:59.373Z,23.30
2019-06-07T12:25:06.045Z,23.40
2019-06-07T12:30:19.398Z,23.40
2019-06-07T12:35:17.740Z,23.50
2019-06-07T12:40:30.579Z,23.60
2019-06-07T12:45:43.774Z,23.70
2019-06-07T12:50:42.694Z,23.60
2019-06-07T12:55:40.584Z,23.60
2019-06-07T13:00:44.929Z,23.50
2019-06-07T13:05:49.283Z,23.50
2019-06-07T13:10:53.611Z,23.40
2019-06-07T13:15:57.957Z,23.30
2019-06-07T13:21:02.306Z,23.20
2019-06-07T13:26:06.663Z,23.10
2019-06-07T13:31:11.006Z,23.00
2019-06-07T13:36:16.058Z,22.90
2019-06-07T13:41:35.274Z,22.90
2019-06-07T13:46:27.159Z,22.80
2019-06-07T13:51:33.377Z,22.70
2019-06-07T13:56:37.914Z,22.70
2019-06-07T14:01:42.332Z,22.70
2019-06-07T14:06:46.650Z,22.60
2019-06-07T14:11:51.195Z,22.60
2019-06-07T14:16:55.599Z,22.50
2019-06-07T14:22:00.151Z,22.50
2019-06-07T14:27:23.911Z,22.40
2019-06-07T14:32:28.746Z,22.40
2019-06-07T14:37:33.218Z,22.30
2019-06-07T14:42:37.538Z,22.20
2019-06-07T14:47:41.891Z,21.80
2019-06-07T14:52:46.260Z,21.40
2019-06-07T14:57:50.609Z,21.00
2019-06-07T15:02:54.959Z,20.70
2019-06-07T15:07:59.418Z,20.40
2019-06-07T15:13:03.918Z,20.00
2019-06-07T15:18:08.267Z,19.70
2019-06-07T15:23:12.617Z,19.50
2019-06-07T15:28:16.949Z,19.30
2019-06-07T15:33:36.504Z,19.20
2019-06-07T15:38:40.927Z,19.20
2019-06-07T15:43:45.319Z,19.10
2019-06-07T15:48:50.227Z,19.10
2019-06-07T15:53:54.611Z,18.90
2019-06-07T15:58:58.958Z,18.90
2019-06-07T16:04:03.747Z,18.90
2019-06-07T16:09:09.137Z,18.80
2019-06-07T16:14:13.781Z,18.70
2019-06-07T16:19:18.117Z,18.70
2019-06-07T16:24:22.477Z,18.60
2019-06-07T16:29:26.809Z,18.60
2019-06-07T16:34:31.148Z,18.50
2019-06-07T16:39:36.095Z,18.30
2019-06-07T16:44:40.734Z,18.30
2019-06-07T16:49:45.316Z,18.20
2019-06-07T16:54:49.684Z,18.00
2019-06-07T16:59:54.032Z,18.00
2019-06-07T17:04:58.391Z,17.80
2019-06-07T17:10:03.810Z,17.70
2019-06-07T17:15:10.360Z,17.70
2019-06-07T17:20:16.748Z,17.80
2019-06-07T17:25:21.490Z,17.70
2019-06-07T17:30:46.119Z,17.70
2019-06-07T17:35:50.722Z,17.60
2019-06-07T17:40:55.082Z,17.60
2019-06-07T17:45:59.433Z,17.60
2019-06-07T17:51:03.881Z,17.60
2019-06-07T17:56:08.207Z,17.60
2019-06-07T18:01:12.563Z,17.60
2019-06-07T18:06:18.515Z,17.60
2019-06-07T18:11:23.030Z,17.70
2019-06-07T18:16:27.367Z,17.70
2019-06-07T18:21:31.723Z,17.60
2019-06-07T18:26:36.096Z,17.60
2019-06-07T18:31:40.452Z,17.50
2019-06-07T18:36:44.811Z,17.50
2019-06-07T18:41:49.152Z,17.50
2019-06-07T18:46:55.822Z,17.50
2019-06-07T18:52:16.644Z,17.50
2019-06-07T18:57:21.007Z,17.50
2019-06-07T19:02:25.371Z,17.50
2019-06-07T19:07:29.707Z,17.50
2019-06-07T19:12:34.216Z,17.50
2019-06-07T19:17:39.027Z,17.40
2019-06-07T19:22:43.380Z,17.40
2019-06-07T19:27:47.912Z,17.40
2019-06-07T19:32:53.140Z,17.40
2019-06-07T19:37:57.917Z,17.40
2019-06-07T19:43:03.944Z,17.40
2019-06-07T19:48:08.701Z,17.40
2019-06-07T19:53:13.070Z,17.30
2019-06-07T19:58:17.413Z,17.30
2019-06-07T20:03:21.788Z,17.20
2019-06-07T20:08:26.870Z,17.20
2019-06-07T20:13:31.317Z,17.20
2019-06-07T20:18:35.619Z,17.20
2019-06-07T20:23:40.046Z,17.20
2019-06-07T20:28:44.389Z,17.20
2019-06-07T20:33:48.764Z,17.20
2019-06-07T20:38:53.120Z,17.20
2019-06-07T20:44:16.796Z,17.20
2019-06-07T20:49:21.145Z,17.20
2019-06-07T20:54:25.631Z,17.20
2019-06-07T20:59:29.983Z,17.20
2019-06-07T21:04:34.344Z,17.30
2019-06-07T21:09:38.711Z,17.30
2019-06-07T21:14:43.079Z,17.20
2019-06-07T21:19:47.432Z,17.30
2019-06-07T21:24:51.808Z,17.30
2019-06-07T21:29:56.176Z,17.30
2019-06-07T21:35:01.857Z,17.20
2019-06-07T21:40:08.183Z,17.30
2019-06-07T21:45:14.812Z,17.30
2019-06-07T21:50:20.195Z,17.30
2019-06-07T21:55:24.551Z,17.30
2019-06-07T22:00:54.751Z,17.30
2019-06-07T22:05:59.424Z,17.40
2019-06-07T22:11:03.871Z,17.30
2019-06-07T22:16:23.357Z,17.30
2019-06-07T22:21:14.774Z,17.40
2019-06-07T22:26:19.296Z,17.30
2019-06-07T22:31:23.680Z,17.40
2019-06-07T22:36:27.992Z,17.40
2019-06-07T22:41:32.405Z,17.40
2019-06-07T22:46:37.975Z,17.30
2019-06-07T22:51:42.378Z,17.30
2019-06-07T22:56:48.421Z,17.30
2019-06-07T23:01:52.812Z,17.20
2019-06-07T23:06:57.129Z,17.20
2019-06-07T23:12:01.502Z,17.20
2019-06-07T23:17:05.933Z,17.20
2019-06-07T23:22:10.302Z,17.20
2019-06-07T23:27:14.626Z,17.20
2019-06-07T23:32:20.190Z,17.20
2019-06-07T23:37:25.135Z,17.10
2019-06-07T23:42:29.490Z,17.10
2019-06-07T23:47:33.899Z,17.10
2019-06-07T23:52:38.248Z,17.00
2019-06-07T23:57:42.589Z,17.10
